createdAt,value
2022-10-17T00:01:00.984Z,442.20
2022-10-17T00:03:28.689Z,442.42
2022-10-17T00:05:57.876Z,298.38
2022-10-17T00:08:27.689Z,435.80
2022-10-17T00:11:04.225Z,392.17
2022-10-17T00:16:04.453Z,402.98
2022-10-17T00:18:32.943Z,399.50
2022-10-17T00:21:00.695Z,402.88
2022-10-17T00:23:28.764Z,403.85
2022-10-17T00:26:05.908Z,404.13
2022-10-17T00:28:36.705Z,398.00
2022-10-17T00:31:06.241Z,274.95
2022-10-17T00:33:35.422Z,396.85
2022-10-17T00:36:13.701Z,399.40
2022-10-17T00:38:43.053Z,396.75
2022-10-17T00:41:15.008Z,272.42
2022-10-17T00:43:56.030Z,264.90
2022-10-17T00:46:28.453Z,267.00
2022-10-17T00:48:57.396Z,255.68
2022-10-17T00:51:46.498Z,408.27
2022-10-17T00:54:17.216Z,398.63
2022-10-17T00:56:48.223Z,412.20
2022-10-17T00:59:22.703Z,412.10
2022-10-17T01:02:00.871Z,410.55
2022-10-17T01:04:28.490Z,279.40
2022-10-17T01:06:56.206Z,410.70
2022-10-17T01:09:27.496Z,420.98
2022-10-17T01:12:05.054Z,298.13
2022-10-17T01:15:18.998Z,421.08
2022-10-17T01:18:12.077Z,405.95
2022-10-17T01:21:01.193Z,273.47
2022-10-17T01:23:53.613Z,417.55
2022-10-17T01:26:50.942Z,420.75
2022-10-17T01:29:45.918Z,408.05
2022-10-17T01:32:18.954Z,403.05
2022-10-17T01:35:07.027Z,294.33
2022-10-17T01:37:46.857Z,279.45
2022-10-17T01:40:22.969Z,402.75
2022-10-17T01:43:32.378Z,403.45
2022-10-17T01:46:12.705Z,415.95
2022-10-17T01:48:42.939Z,423.92
2022-10-17T01:51:34.057Z,419.73
2022-10-17T01:54:23.987Z,418.55
2022-10-17T01:57:08.302Z,261.75
2022-10-17T01:59:41.305Z,373.80
2022-10-17T02:02:09.728Z,248.43
2022-10-17T02:04:37.707Z,266.27
2022-10-17T02:07:09.935Z,371.23
2022-10-17T02:09:40.644Z,382.92
2022-10-17T02:12:28.595Z,259.00
2022-10-17T02:15:30.122Z,377.83
2022-10-17T02:18:28.008Z,374.30
2022-10-17T02:21:09.921Z,264.15
2022-10-17T02:23:44.530Z,380.20
2022-10-17T02:26:38.348Z,250.25
2022-10-17T02:29:22.646Z,252.98
2022-10-17T02:32:13.383Z,374.33
2022-10-17T02:34:52.502Z,372.03
2022-10-17T02:37:25.546Z,373.88
2022-10-17T02:39:57.017Z,253.20
2022-10-17T02:42:26.389Z,262.15
2022-10-17T02:44:55.214Z,377.35
2022-10-17T02:47:28.882Z,381.60
2022-10-17T02:49:58.655Z,378.83
2022-10-17T02:52:51.040Z,268.30
2022-10-17T02:55:23.429Z,257.23
2022-10-17T02:57:53.530Z,258.67
2022-10-17T03:00:22.804Z,370.42
2022-10-17T03:02:53.752Z,375.05
2022-10-17T03:05:29.557Z,263.23
2022-10-17T03:08:05.918Z,371.77
2022-10-17T03:10:33.406Z,376.92
2022-10-17T03:13:00.839Z,322.58
2022-10-17T03:15:31.862Z,257.42
2022-10-17T03:17:59.878Z,369.98
2022-10-17T03:20:27.300Z,384.10
2022-10-17T03:22:54.710Z,384.00
2022-10-17T03:25:22.564Z,254.63
2022-10-17T03:27:50.096Z,380.52
2022-10-17T03:30:17.447Z,260.23
2022-10-17T03:32:44.882Z,263.50
2022-10-17T03:35:15.253Z,377.15
2022-10-17T03:37:47.020Z,374.00
2022-10-17T03:40:18.752Z,372.85
2022-10-17T03:42:49.202Z,381.35
2022-10-17T03:45:17.061Z,385.27
2022-10-17T03:47:46.085Z,271.75
2022-10-17T03:50:13.668Z,262.95
2022-10-17T03:52:48.677Z,385.05
2022-10-17T03:57:45.590Z,386.52
2022-10-17T04:00:15.421Z,385.10
2022-10-17T04:02:44.977Z,376.42
2022-10-17T04:05:18.738Z,378.48
2022-10-17T04:07:47.794Z,381.75
2022-10-17T04:10:17.496Z,385.50
2022-10-17T04:12:44.973Z,381.77
2022-10-17T04:15:12.979Z,251.18
2022-10-17T04:17:40.850Z,388.60
2022-10-17T04:20:08.818Z,388.90
2022-10-17T04:22:36.277Z,268.73
2022-10-17T04:25:04.551Z,261.13
2022-10-17T04:27:36.800Z,274.30
2022-10-17T04:30:05.771Z,261.02
2022-10-17T04:32:38.780Z,263.58
2022-10-17T04:35:13.831Z,291.17
2022-10-17T04:37:46.573Z,273.58
2022-10-17T04:40:18.730Z,396.77
2022-10-17T04:42:47.219Z,372.95
2022-10-17T04:45:18.807Z,373.23
2022-10-17T04:47:48.745Z,254.25
2022-10-17T04:50:16.128Z,256.80
2022-10-17T04:52:52.614Z,265.95
2022-10-17T04:55:22.434Z,371.13
2022-10-17T04:57:49.717Z,254.35
2022-10-17T05:00:21.491Z,372.95
2022-10-17T05:02:49.213Z,364.67
2022-10-17T05:05:16.712Z,262.73
2022-10-17T05:07:46.517Z,372.33
2022-10-17T05:10:18.741Z,249.35
2022-10-17T05:12:49.752Z,378.00
2022-10-17T05:15:19.330Z,374.85
2022-10-17T05:17:46.755Z,367.35
2022-10-17T05:20:14.453Z,365.48
2022-10-17T05:22:42.454Z,368.42
2022-10-17T05:25:11.844Z,262.13
2022-10-17T05:27:39.233Z,256.25
2022-10-17T05:30:08.224Z,382.65
2022-10-17T05:32:37.072Z,373.20
2022-10-17T05:35:05.127Z,364.25
2022-10-17T05:37:33.435Z,263.70
2022-10-17T05:40:03.385Z,249.25
2022-10-17T05:42:33.029Z,375.75
2022-10-17T05:45:03.001Z,374.55
2022-10-17T05:47:31.556Z,263.80
2022-10-17T05:49:59.460Z,370.63
2022-10-17T05:52:33.441Z,373.65
2022-10-17T05:55:27.153Z,130.43
2022-10-17T05:57:54.628Z,379.23
2022-10-17T06:00:23.961Z,376.50
2022-10-17T06:02:58.653Z,377.40
2022-10-17T06:05:28.387Z,380.05
2022-10-17T06:07:59.619Z,377.85
2022-10-17T06:10:31.093Z,379.92
2022-10-17T06:12:59.207Z,371.55
2022-10-17T06:15:26.906Z,382.92
2022-10-17T06:18:06.114Z,383.75
2022-10-17T06:20:37.227Z,380.50
2022-10-17T06:23:05.252Z,260.10
2022-10-17T06:25:48.268Z,58.60
2022-10-17T06:28:15.748Z,271.75
2022-10-17T06:30:46.436Z,380.23
2022-10-17T06:33:16.888Z,381.70
2022-10-17T06:35:57.159Z,271.52
2022-10-17T06:38:25.884Z,268.95
2022-10-17T06:41:08.053Z,374.63
2022-10-17T06:43:39.742Z,372.00
2022-10-17T06:46:26.972Z,371.52
2022-10-17T06:48:59.429Z,257.48
2022-10-17T06:51:40.517Z,269.35
2022-10-17T06:54:10.647Z,380.73
2022-10-17T06:57:06.324Z,388.58
2022-10-17T07:00:00.939Z,377.30
2022-10-17T07:02:37.165Z,381.35
2022-10-17T07:05:06.002Z,389.02
2022-10-17T07:07:44.125Z,389.95
2022-10-17T07:10:16.006Z,270.80
2022-10-17T07:12:45.923Z,390.88
2022-10-17T07:15:16.416Z,384.55
2022-10-17T07:17:43.770Z,385.42
2022-10-17T07:20:11.411Z,388.55
2022-10-17T07:22:39.374Z,385.00
2022-10-17T07:25:08.377Z,385.95
2022-10-17T07:27:52.162Z,248.70
2022-10-17T07:33:08.727Z,258.88
2022-10-17T07:35:38.531Z,264.73
2022-10-17T07:38:06.129Z,388.27
2022-10-17T07:40:33.941Z,271.05
2022-10-17T07:43:01.667Z,387.55
2022-10-17T07:45:30.341Z,391.45
2022-10-17T07:47:59.856Z,389.35
2022-10-17T07:50:27.360Z,266.42
2022-10-17T07:52:54.701Z,272.65
2022-10-17T07:55:22.079Z,393.90
2022-10-17T07:57:49.447Z,392.77
2022-10-17T08:00:16.959Z,384.08
2022-10-17T08:02:44.260Z,393.52
2022-10-17T08:05:11.974Z,137.80
2022-10-17T08:07:41.494Z,390.98
2022-10-17T08:10:10.736Z,264.73
2022-10-17T08:12:39.088Z,392.50
2022-10-17T08:15:13.076Z,395.90
2022-10-17T08:17:40.471Z,277.33
2022-10-17T08:20:08.024Z,390.63
2022-10-17T08:22:35.410Z,388.88
2022-10-17T08:25:02.706Z,279.88
2022-10-17T08:27:30.047Z,411.30
2022-10-17T08:30:00.392Z,412.02
2022-10-17T08:32:29.765Z,412.23
2022-10-17T08:34:57.253Z,399.63
2022-10-17T08:37:25.352Z,411.67
2022-10-17T08:39:52.691Z,419.48
2022-10-17T08:42:55.239Z,408.90
2022-10-17T08:45:30.247Z,413.17
2022-10-17T08:48:09.707Z,426.73
2022-10-17T08:50:51.522Z,425.48
2022-10-17T08:54:00.695Z,437.90
2022-10-17T08:56:48.107Z,445.80
2022-10-17T08:59:28.510Z,301.55
2022-10-17T09:02:20.013Z,465.60
2022-10-17T09:05:23.974Z,466.73
2022-10-17T09:08:40.910Z,467.92
2022-10-17T09:11:44.145Z,452.00
2022-10-17T09:14:44.948Z,448.08
2022-10-17T09:17:28.360Z,454.50
2022-10-17T09:20:20.271Z,460.35
2022-10-17T09:23:04.359Z,458.30
2022-10-17T09:25:43.085Z,454.88
2022-10-17T09:28:18.153Z,450.20
2022-10-17T09:30:54.379Z,456.52
2022-10-17T09:33:35.420Z,454.88
2022-10-17T09:36:16.151Z,457.65
2022-10-17T09:38:50.735Z,450.52
2022-10-17T09:41:46.791Z,453.60
2022-10-17T09:44:16.764Z,314.65
2022-10-17T09:47:07.544Z,447.05
2022-10-17T09:49:40.210Z,403.60
2022-10-17T09:52:47.666Z,412.85
2022-10-17T09:55:45.321Z,412.45
2022-10-17T09:58:13.019Z,281.65
2022-10-17T10:00:45.606Z,422.77
2022-10-17T10:03:26.606Z,256.10
2022-10-17T10:06:13.524Z,408.13
2022-10-17T10:08:54.103Z,284.67
2022-10-17T10:11:46.387Z,416.23
2022-10-17T10:14:22.571Z,401.13
2022-10-17T10:16:55.455Z,405.23
2022-10-17T10:19:36.740Z,408.63
2022-10-17T10:22:16.477Z,418.88
2022-10-17T10:24:44.159Z,415.58
2022-10-17T10:27:17.684Z,417.35
2022-10-17T10:29:55.364Z,423.55
2022-10-17T10:32:32.260Z,274.05
2022-10-17T10:35:08.904Z,412.27
2022-10-17T10:37:36.238Z,415.48
2022-10-17T10:40:06.394Z,416.05
2022-10-17T10:42:36.799Z,301.92
2022-10-17T10:45:46.933Z,223.40
2022-10-17T10:48:23.435Z,432.45
2022-10-17T10:51:08.307Z,186.40
2022-10-17T10:53:53.583Z,188.57
2022-10-17T10:56:41.714Z,176.82
2022-10-17T10:59:09.072Z,81.05
2022-10-17T11:01:45.675Z,107.13
2022-10-17T11:04:46.418Z,75.32
2022-10-17T11:07:25.497Z,104.40
2022-10-17T11:10:14.229Z,96.10
2022-10-17T11:12:51.055Z,108.10
2022-10-17T11:15:37.431Z,112.45
2022-10-17T11:18:12.214Z,110.10
2022-10-17T11:20:48.795Z,114.85
2022-10-17T11:23:28.398Z,110.07
2022-10-17T11:25:59.253Z,95.65
2022-10-17T11:28:26.906Z,82.00
2022-10-17T11:31:08.021Z,82.72
2022-10-17T11:33:47.456Z,90.65
2022-10-17T11:36:18.170Z,91.68
2022-10-17T11:38:50.527Z,104.03
2022-10-17T11:41:35.327Z,95.30
2022-10-17T13:51:53.089Z,82.43
2022-10-17T13:57:29.839Z,50.47
2022-10-17T15:54:24.665Z,109.43
2022-10-17T15:56:56.254Z,180.82
2022-10-17T15:59:30.548Z,177.50
2022-10-17T16:01:58.270Z,175.80
2022-10-17T16:04:29.995Z,176.63
2022-10-17T16:06:57.482Z,189.57
2022-10-17T16:09:24.815Z,186.75
2022-10-17T16:11:54.880Z,181.82
2022-10-17T16:14:22.659Z,190.98
2022-10-17T16:16:53.445Z,192.90
2022-10-17T16:19:21.875Z,188.98
2022-10-17T16:21:49.291Z,192.50
2022-10-17T16:24:20.178Z,185.13
2022-10-17T16:26:47.679Z,71.55
2022-10-17T16:29:14.984Z,96.88
2022-10-17T16:31:44.861Z,186.15
2022-10-17T16:34:14.346Z,196.77
2022-10-17T16:36:42.613Z,191.07
2022-10-17T16:39:12.563Z,195.98
2022-10-17T16:41:40.163Z,193.55
2022-10-17T16:44:13.210Z,193.85
2022-10-17T16:46:42.498Z,193.95
2022-10-17T16:49:30.944Z,192.95
2022-10-17T16:51:58.261Z,186.32
2022-10-17T16:54:25.571Z,194.20
2022-10-17T16:56:53.087Z,123.47
2022-10-17T16:59:20.609Z,69.03
2022-10-17T17:01:48.426Z,249.13
2022-10-17T17:04:15.877Z,154.98
2022-10-17T17:09:10.750Z,187.75
2022-10-17T17:11:42.112Z,170.52
2022-10-17T17:14:10.440Z,187.43
2022-10-17T17:16:37.757Z,191.43
2022-10-17T17:19:08.136Z,192.05
2022-10-17T17:21:36.019Z,194.93
2022-10-17T17:24:04.631Z,184.18
2022-10-17T17:26:36.210Z,185.77
2022-10-17T17:29:06.083Z,190.43
2022-10-17T17:31:34.935Z,191.82
2022-10-17T17:34:03.554Z,189.27
2022-10-17T17:36:33.827Z,187.93
2022-10-17T17:39:04.347Z,159.07
2022-10-17T17:41:32.307Z,130.00
2022-10-17T17:44:03.546Z,196.45
2022-10-17T17:46:31.303Z,185.93
2022-10-17T17:48:58.964Z,191.68
2022-10-17T17:51:29.390Z,168.88
2022-10-17T17:53:59.370Z,187.23
2022-10-17T17:56:28.726Z,166.70
2022-10-17T17:58:58.477Z,111.80
2022-10-17T18:01:28.485Z,65.32
2022-10-17T18:03:59.088Z,116.97
2022-10-17T18:06:29.175Z,63.88
2022-10-17T18:09:01.572Z,56.50
2022-10-17T18:11:32.089Z,7.20
2022-10-17T18:14:05.997Z,12.40
2022-10-17T18:16:35.136Z,11.32
2022-10-17T18:19:13.278Z,14.73
2022-10-17T18:21:44.450Z,10.77
2022-10-17T18:24:12.828Z,9.68
2022-10-17T18:26:40.076Z,11.10
2022-10-17T18:29:07.539Z,20.05
2022-10-17T18:31:38.511Z,27.40
2022-10-17T18:34:06.532Z,6.75
2022-10-17T18:36:35.467Z,11.45
2022-10-17T18:39:04.189Z,24.05
2022-10-17T18:41:32.236Z,18.85
2022-10-17T18:43:59.841Z,21.38
2022-10-17T18:46:34.962Z,30.27
2022-10-17T18:49:02.774Z,18.13
2022-10-17T18:51:30.015Z,23.20
2022-10-17T18:54:04.153Z,27.55
2022-10-17T18:56:33.108Z,26.40
2022-10-17T18:59:00.496Z,32.97
2022-10-17T19:01:28.654Z,37.67
2022-10-17T19:03:59.228Z,163.43
2022-10-17T19:06:31.734Z,145.48
2022-10-17T19:09:03.669Z,16.47
2022-10-17T19:11:32.926Z,5.00
2022-10-17T19:14:03.518Z,5.47
2022-10-17T19:16:37.151Z,5.32
2022-10-17T19:19:12.057Z,5.10
2022-10-17T19:21:39.946Z,5.40
2022-10-17T19:24:17.165Z,5.18
2022-10-17T19:26:46.779Z,5.57
2022-10-17T19:29:20.908Z,5.35
2022-10-17T19:31:51.406Z,5.22
2022-10-17T19:34:18.880Z,5.13
2022-10-17T19:36:46.534Z,5.07
2022-10-17T19:39:23.063Z,6.25
2022-10-17T19:41:50.401Z,5.97
2022-10-17T19:44:17.988Z,4.60
2022-10-17T19:46:47.049Z,4.95
2022-10-17T19:49:15.189Z,3.78
2022-10-17T19:51:42.537Z,3.72
2022-10-17T19:54:12.492Z,5.55
2022-10-17T19:56:40.668Z,4.63
2022-10-17T19:59:13.262Z,4.80
2022-10-17T20:01:41.127Z,5.43
2022-10-17T20:04:11.131Z,6.57
2022-10-17T20:06:39.274Z,6.95
2022-10-17T20:09:09.790Z,8.35
2022-10-17T20:11:42.825Z,160.98
2022-10-17T20:14:19.231Z,169.57
2022-10-17T20:16:50.447Z,171.00
2022-10-17T20:19:17.810Z,171.05
2022-10-17T20:21:45.095Z,172.35
2022-10-17T20:24:15.588Z,159.10
2022-10-17T20:26:45.694Z,3.90
2022-10-17T20:29:17.359Z,4.78
2022-10-17T20:31:49.155Z,4.95
2022-10-17T20:34:18.616Z,5.32
2022-10-17T20:36:46.711Z,5.28
2022-10-17T20:39:17.037Z,5.20
2022-10-17T20:41:45.071Z,5.25
2022-10-17T20:44:13.595Z,4.43
2022-10-17T20:47:00.837Z,5.15
2022-10-17T20:49:33.549Z,4.05
2022-10-17T20:52:01.498Z,5.85
2022-10-17T20:54:31.774Z,6.05
2022-10-17T20:57:02.442Z,5.75
2022-10-17T20:59:32.726Z,6.55
2022-10-17T21:02:04.448Z,8.63
2022-10-17T21:04:47.911Z,7.25
2022-10-17T21:07:16.238Z,7.65
2022-10-17T21:09:43.718Z,9.13
2022-10-17T21:12:11.028Z,8.18
2022-10-17T21:14:40.549Z,8.68
2022-10-17T21:17:09.192Z,9.35
2022-10-17T21:19:36.435Z,9.90
2022-10-17T21:22:03.752Z,10.55
2022-10-17T21:24:33.588Z,9.02
2022-10-17T21:27:03.097Z,10.05
2022-10-17T21:29:30.758Z,9.15
2022-10-17T21:31:58.263Z,9.68
2022-10-17T21:34:25.638Z,8.35
2022-10-17T21:36:54.035Z,9.38
2022-10-17T21:39:24.297Z,9.00
2022-10-17T21:41:52.716Z,9.95
2022-10-17T21:44:25.507Z,8.80
2022-10-17T21:46:54.042Z,10.10
2022-10-17T21:49:23.297Z,10.80
2022-10-17T21:51:51.996Z,9.00
2022-10-17T21:54:20.656Z,9.02
2022-10-17T21:56:50.842Z,8.35
2022-10-17T21:59:18.216Z,9.50
2022-10-17T22:01:46.657Z,8.77
2022-10-17T22:04:16.897Z,8.70
2022-10-17T22:06:46.029Z,9.30
2022-10-17T22:09:21.289Z,8.80
2022-10-17T22:11:52.155Z,8.55
2022-10-17T22:14:21.343Z,9.38
2022-10-17T22:16:49.995Z,8.40
2022-10-17T22:19:20.812Z,8.70
2022-10-17T22:21:48.247Z,8.65
2022-10-17T22:24:17.542Z,9.10
2022-10-17T22:26:45.557Z,10.80
2022-10-17T22:29:13.349Z,8.90
2022-10-17T22:31:40.969Z,9.57
2022-10-17T22:34:08.691Z,10.10
2022-10-17T22:36:36.296Z,10.23
2022-10-17T22:39:04.598Z,9.57
2022-10-17T22:41:32.044Z,9.25
2022-10-17T22:43:59.309Z,9.73
2022-10-17T22:46:26.898Z,8.00
2022-10-17T22:48:54.212Z,9.23
2022-10-17T22:51:21.709Z,8.88
2022-10-17T22:53:48.991Z,9.32
2022-10-17T22:56:19.598Z,9.07
2022-10-17T22:58:47.983Z,8.90
2022-10-17T23:01:20.955Z,7.95
2022-10-17T23:03:48.551Z,7.93
2022-10-17T23:06:16.586Z,7.82
2022-10-17T23:08:44.264Z,8.90
2022-10-17T23:11:12.483Z,8.45
2022-10-17T23:13:41.073Z,8.27
2022-10-17T23:16:09.214Z,8.52
2022-10-17T23:18:37.938Z,7.78
2022-10-17T23:21:06.849Z,9.75
2022-10-17T23:23:34.655Z,9.95
2022-10-17T23:26:10.624Z,9.85
2022-10-17T23:28:38.285Z,8.25
2022-10-17T23:31:19.366Z,9.65
2022-10-17T23:33:48.003Z,8.88
2022-10-17T23:36:17.801Z,8.60
2022-10-17T23:38:46.936Z,9.75
2022-10-17T23:41:15.152Z,8.80
2022-10-17T23:43:43.327Z,9.43
2022-10-17T23:46:11.048Z,8.23
2022-10-17T23:48:39.433Z,10.57
2022-10-17T23:51:08.870Z,8.68
2022-10-17T23:53:40.068Z,9.23
2022-10-17T23:56:08.730Z,8.90
2022-10-17T23:58:36.488Z,10.40
